Orto / Ocaso: 04:59 / 19:28 UTC (Datos para LEAX 29-05-2020)

[fuente: ADDS]

METAR:


LEMG 291200Z 15009KT 110V180 CAVOK 26/13 Q1015 NOSIG =
TAF LEMG 291100Z 2912/3012 15008KT CAVOK TX26/2913Z TN17/3005Z BECMG 2921/2923 29006KT BECMG 3007/3009 13008KT LEGR 291200Z AUTO VRB02KT CAVOK 29/06 Q1015 =
TAF LEGR 290800Z 2909/3009 VRB02KT CAVOK TX33/2915Z TN15/3005Z BECMG 2915/2917 18010KT BECMG 2922/2924 VRB02KT LEZL 291200Z AUTO 05004KT 330V090 CAVOK 30/09 Q1013 =
TAF LEZL 290800Z 2909/3009 05006KT CAVOK TX36/2915Z TN19/3005Z BECMG 2917/2919 22010KT BECMG 3000/3002 04004KT LEAM 291200Z AUTO 05016KT 010V090 CAVOK 30/05 Q1014 =
TAF LEAM 290800Z 2909/3009 05016KT CAVOK TX32/2914Z TN20/3005Z PROB30 TEMPO 2909/2920 07018G30KT BECMG 2921/2923 35008KT LEBA 291200Z AUTO 23002KT CAVOK 31/11 Q1013 =
TAF LEBA 291100Z 2912/2921 09004KT CAVOK BECMG 2919/2921 22010KT LEJR 291230Z 13006KT 050V220 CAVOK 31/10 Q1013 =
TAF LEJR 291100Z 2912/3012 13007KT CAVOK TX34/2914Z TN15/3006Z GEML 291200Z AUTO 03009KT 350V070 9999 OVC014 21/17 Q1015 =
TAF COR GEML 290828Z 2909/3009 06008KT 9999 FEW008 BKN012 TX23/2913Z TN18/3005Z TEMPO 2909/2918 SCT012 LXGB 291220Z 08011KT 9999 FEW020 23/17 Q1015 NOSIG RMK BLU BLU =
TAF LXGB 291032Z 2912/2921 09012KT 9999 FEW014 PROB30 TEMPO 2912/2917 10015G25KT 520001

TAFOR:


TAF LEMG 291100Z 2912/3012 15008KT CAVOK TX26/2913Z TN17/3005Z BECMG 2921/2923 29006KT BECMG 3007/3009 13008KT =
TAF LEGR 290800Z 2909/3009 VRB02KT CAVOK TX33/2915Z TN15/3005Z BECMG 2915/2917 18010KT BECMG 2922/2924 VRB02KT =
TAF LEZL 290800Z 2909/3009 05006KT CAVOK TX36/2915Z TN19/3005Z BECMG 2917/2919 22010KT BECMG 3000/3002 04004KT =
TAF LEAM 290800Z 2909/3009 05016KT CAVOK TX32/2914Z TN20/3005Z PROB30 TEMPO 2909/2920 07018G30KT BECMG 2921/2923 35008KT =
TAF LEBA 291100Z 2912/2921 09004KT CAVOK BECMG 2919/2921 22010KT =
TAF LEJR 291100Z 2912/3012 13007KT CAVOK TX34/2914Z TN15/3006Z =
TAF COR GEML 290828Z 2909/3009 06008KT 9999 FEW008 BKN012 TX23/2913Z TN18/3005Z TEMPO 2909/2918 SCT012 =
TAF LXGB 291032Z 2912/2921 09012KT 9999 FEW014 PROB30 TEMPO 2912/2917 10015G25KT 520001 =

Recuerde que, aunque regularmente actualizada, la información meteorológica aquí presentada no debe ser utilizada para la planificación de vuelos. Si lo desea, puede consultar la información meteorológica adecuada, tanto de aeródromos como en ruta, por las vías oficialmente establecidas en la legislación -> AQUí

Utilizamos "cookies" propias y de terceros para analizar nuestros servicios, medir las audiencias, personalizar el contenido que ofrecemos y mostrar información adaptada a sus intereses mediante la obtención de los datos necesarios para perfilar sus hábitos de navegación e inferir grupos de interés, siempre de modo anónimo. Si continúa utilizando el sitio web AEROCLUBMALAGA.COM, significa que acepta sus términos y condiciones y el uso de "cookies" al utilizar el sitio web y nuestros servicios. Asimismo, podemos utilizar fuentes de datos externas para elaborar estos grupos de interés, así compartir los análisis de navegación y los grupos de interés inferidos con terceros con el objetivo de personalizar los contenidos. Para obtener más información sobre las cookies que utilizamos y cómo eliminarlas, consulte nuestra política de privacidad.

Acepto las cookies de esta página web.
EU Cookie Directive plugin by www.channeldigital.co.uk